createdAt,value
2023-03-27T00:02:23.329Z,97.10
2023-03-27T00:04:50.582Z,97.10
2023-03-27T00:07:17.410Z,97.00
2023-03-27T00:09:44.326Z,96.90
2023-03-27T00:12:11.210Z,96.90
2023-03-27T00:14:37.968Z,96.90
2023-03-27T00:17:05.169Z,96.90
2023-03-27T00:19:34.001Z,96.90
2023-03-27T00:22:01.197Z,97.00
2023-03-27T00:24:28.376Z,96.80
2023-03-27T00:26:55.392Z,97.00
2023-03-27T00:29:22.230Z,97.00
2023-03-27T00:31:49.126Z,97.00
2023-03-27T00:34:16.042Z,96.70
2023-03-27T00:36:43.806Z,96.80
2023-03-27T00:39:11.265Z,96.90
2023-03-27T00:41:38.190Z,97.00
2023-03-27T00:44:27.557Z,97.10
2023-03-27T00:46:57.134Z,97.00
2023-03-27T00:49:27.444Z,96.80
2023-03-27T00:51:54.536Z,96.80
2023-03-27T00:54:26.683Z,96.90
2023-03-27T00:56:58.013Z,96.90
2023-03-27T00:59:31.136Z,97.00
2023-03-27T01:02:02.844Z,97.50
2023-03-27T01:04:31.589Z,97.80
2023-03-27T01:06:59.117Z,97.80
2023-03-27T01:09:27.202Z,97.80
2023-03-27T01:12:15.510Z,97.70
2023-03-27T01:14:45.985Z,97.70
2023-03-27T01:17:34.680Z,97.60
2023-03-27T01:20:14.345Z,97.80
2023-03-27T01:23:07.175Z,97.70
2023-03-27T01:26:04.388Z,97.70
2023-03-27T01:29:08.026Z,97.80
2023-03-27T01:32:00.270Z,98.30
2023-03-27T01:35:14.675Z,98.40
2023-03-27T01:38:12.693Z,98.40
2023-03-27T01:40:51.094Z,98.20
2023-03-27T01:43:33.472Z,98.40
2023-03-27T01:46:26.914Z,98.30
2023-03-27T01:49:04.089Z,98.50
2023-03-27T01:51:37.932Z,98.30
2023-03-27T01:54:16.043Z,98.50
2023-03-27T01:57:04.249Z,98.20
2023-03-27T01:59:35.944Z,98.40
2023-03-27T02:02:14.750Z,98.60
2023-03-27T02:04:47.706Z,98.90
2023-03-27T02:07:19.936Z,98.90
2023-03-27T02:09:51.200Z,99.20
2023-03-27T02:12:25.791Z,98.90
2023-03-27T02:15:22.381Z,98.90
2023-03-27T02:17:57.102Z,98.80
2023-03-27T02:20:24.239Z,98.40
2023-03-27T02:22:51.518Z,98.40
2023-03-27T02:25:34.077Z,98.40
2023-03-27T02:28:20.932Z,98.30
2023-03-27T02:31:33.227Z,98.10
2023-03-27T02:34:12.034Z,98.20
2023-03-27T02:36:57.672Z,98.20
2023-03-27T02:39:42.114Z,98.10
2023-03-27T02:42:27.898Z,98.20
2023-03-27T02:45:11.317Z,98.30
2023-03-27T02:47:42.947Z,98.60
2023-03-27T02:50:19.348Z,98.60
2023-03-27T02:52:52.648Z,98.60
2023-03-27T02:55:23.647Z,98.40
2023-03-27T02:57:59.520Z,98.10
2023-03-27T03:00:33.810Z,98.10
2023-03-27T03:03:36.249Z,97.90
2023-03-27T03:06:07.162Z,97.80
2023-03-27T03:08:38.722Z,98.20
2023-03-27T03:11:10.232Z,98.10
2023-03-27T03:13:38.540Z,98.10
2023-03-27T03:16:05.950Z,98.10
2023-03-27T03:18:32.726Z,98.00
2023-03-27T03:21:00.140Z,98.60
2023-03-27T03:23:27.178Z,98.20
2023-03-27T03:25:56.771Z,98.50
2023-03-27T03:28:27.410Z,98.60
2023-03-27T03:30:55.144Z,98.90
2023-03-27T03:33:22.472Z,98.40
2023-03-27T03:35:50.824Z,98.30
2023-03-27T03:38:28.022Z,98.20
2023-03-27T03:40:56.428Z,98.10
2023-03-27T03:43:26.370Z,98.20
2023-03-27T03:45:54.218Z,98.40
2023-03-27T03:48:22.267Z,98.50
2023-03-27T03:50:50.022Z,98.60
2023-03-27T03:53:19.448Z,98.90
2023-03-27T03:55:49.298Z,98.70
2023-03-27T03:58:16.477Z,98.50
2023-03-27T04:00:43.627Z,98.20
2023-03-27T04:03:10.837Z,98.00
2023-03-27T04:05:38.540Z,98.20
2023-03-27T04:08:08.981Z,98.20
2023-03-27T04:10:41.332Z,98.50
2023-03-27T04:13:08.707Z,99.70
2023-03-27T04:15:35.664Z,99.90
2023-03-27T04:18:03.277Z,99.20
2023-03-27T04:20:34.718Z,99.00
2023-03-27T04:23:04.883Z,98.60
2023-03-27T04:25:32.186Z,98.60
2023-03-27T04:27:59.082Z,98.80
2023-03-27T04:30:27.706Z,98.60
2023-03-27T04:32:55.025Z,98.30
2023-03-27T04:35:22.044Z,98.50
2023-03-27T04:37:48.909Z,98.50
2023-03-27T04:40:20.020Z,98.50
2023-03-27T04:42:46.803Z,98.50
2023-03-27T04:45:23.418Z,98.30
2023-03-27T04:47:50.358Z,98.40
2023-03-27T04:50:18.009Z,98.40
2023-03-27T04:52:48.406Z,98.40
2023-03-27T04:55:16.824Z,98.40
2023-03-27T04:57:47.808Z,98.40
2023-03-27T05:00:16.365Z,98.30
2023-03-27T05:02:43.424Z,98.30
2023-03-27T05:05:10.468Z,98.60
2023-03-27T05:07:37.864Z,98.70
2023-03-27T05:10:06.085Z,98.60
2023-03-27T05:12:33.382Z,98.80
2023-03-27T05:15:00.639Z,98.90
2023-03-27T05:17:27.511Z,99.00
2023-03-27T05:19:54.284Z,99.10
2023-03-27T05:22:21.820Z,98.90
2023-03-27T05:24:48.625Z,99.20
2023-03-27T05:27:15.387Z,99.50
2023-03-27T05:29:47.444Z,99.90
2023-03-27T05:32:14.822Z,99.90
2023-03-27T05:34:42.425Z,99.90
2023-03-27T05:37:09.588Z,99.90
2023-03-27T05:39:36.923Z,99.90
2023-03-27T05:42:04.163Z,99.90
2023-03-27T05:44:31.151Z,99.90
2023-03-27T05:46:58.339Z,99.90
2023-03-27T05:49:25.479Z,99.90
2023-03-27T05:51:52.727Z,99.90
2023-03-27T05:54:19.520Z,99.90
2023-03-27T05:56:46.641Z,99.90
2023-03-27T05:59:13.511Z,99.90
2023-03-27T06:01:40.406Z,99.90
2023-03-27T06:04:09.382Z,99.90
2023-03-27T06:06:36.442Z,99.90
2023-03-27T06:09:03.844Z,99.90
2023-03-27T06:11:30.899Z,99.90
2023-03-27T06:13:58.716Z,99.90
2023-03-27T06:16:25.901Z,99.90
2023-03-27T06:18:53.128Z,99.90
2023-03-27T06:21:22.459Z,99.90
2023-03-27T06:23:49.268Z,99.90
2023-03-27T06:26:16.056Z,99.10
2023-03-27T06:28:42.854Z,99.30
2023-03-27T06:31:09.751Z,99.10
2023-03-27T06:33:37.208Z,99.00
2023-03-27T06:36:05.415Z,98.80
2023-03-27T06:38:33.006Z,98.70
2023-03-27T06:41:00.114Z,98.70
2023-03-27T06:43:27.002Z,98.50
2023-03-27T06:45:54.075Z,98.70
2023-03-27T06:48:22.551Z,98.70
2023-03-27T06:50:51.303Z,98.70
2023-03-27T06:53:27.271Z,98.80
2023-03-27T06:55:55.938Z,98.70
2023-03-27T06:58:23.061Z,98.80
2023-03-27T07:00:50.352Z,98.90
2023-03-27T07:03:18.540Z,99.00
2023-03-27T07:05:45.868Z,98.70
2023-03-27T07:08:24.292Z,99.10
2023-03-27T07:11:00.417Z,99.10
2023-03-27T07:13:37.459Z,98.80
2023-03-27T07:16:04.558Z,98.70
2023-03-27T07:18:31.685Z,98.70
2023-03-27T07:20:58.692Z,98.90
2023-03-27T07:23:25.716Z,98.80
2023-03-27T07:25:58.052Z,98.90
2023-03-27T07:28:25.081Z,98.70
2023-03-27T07:30:51.894Z,99.20
2023-03-27T07:33:19.264Z,99.20
2023-03-27T07:35:48.224Z,99.10
2023-03-27T07:38:16.730Z,99.10
2023-03-27T07:40:46.127Z,99.00
2023-03-27T07:43:13.594Z,99.40
2023-03-27T07:45:42.021Z,99.40
2023-03-27T07:48:14.036Z,99.30
2023-03-27T07:50:40.773Z,99.40
2023-03-27T07:53:07.756Z,99.20
2023-03-27T07:55:37.772Z,99.00
2023-03-27T07:58:06.984Z,98.80
2023-03-27T08:00:38.888Z,98.40
2023-03-27T08:03:11.586Z,98.40
2023-03-27T08:05:38.636Z,98.20
2023-03-27T08:08:05.782Z,97.90
2023-03-27T08:10:32.671Z,97.90
2023-03-27T08:12:59.622Z,98.00
2023-03-27T08:15:26.576Z,97.90
2023-03-27T08:17:55.465Z,97.00
2023-03-27T08:20:23.987Z,97.00
2023-03-27T08:22:54.023Z,96.80
2023-03-27T08:25:22.742Z,96.20
2023-03-27T08:27:49.950Z,95.90
2023-03-27T08:30:17.540Z,95.50
2023-03-27T08:32:45.066Z,95.60
2023-03-27T08:35:13.594Z,95.40
2023-03-27T08:37:41.418Z,95.20
2023-03-27T08:40:19.495Z,95.50
2023-03-27T08:42:48.703Z,95.70
2023-03-27T08:45:36.280Z,95.90
2023-03-27T08:48:11.061Z,95.80
2023-03-27T08:51:04.437Z,95.50
2023-03-27T08:53:53.085Z,95.00
2023-03-27T08:56:21.184Z,95.50
2023-03-27T08:58:48.898Z,94.90
2023-03-27T09:01:35.471Z,94.80
2023-03-27T09:04:12.973Z,94.50
2023-03-27T09:07:04.408Z,95.10
2023-03-27T09:09:52.841Z,94.50
2023-03-27T09:12:42.065Z,94.30
2023-03-27T09:15:39.848Z,93.90
2023-03-27T09:18:39.220Z,93.90
2023-03-27T09:21:15.290Z,94.50
2023-03-27T09:23:46.857Z,94.70
2023-03-27T09:26:20.573Z,94.30
2023-03-27T09:29:07.284Z,94.30
2023-03-27T09:31:40.155Z,94.10
2023-03-27T09:34:12.731Z,93.70
2023-03-27T09:36:39.647Z,93.90
2023-03-27T09:39:16.355Z,93.60
2023-03-27T09:41:49.120Z,93.60
2023-03-27T09:44:25.607Z,93.60
2023-03-27T09:47:04.445Z,93.60
2023-03-27T09:49:32.689Z,93.40
2023-03-27T09:52:00.287Z,93.50
2023-03-27T09:54:32.613Z,93.60
2023-03-27T09:57:11.267Z,93.40
2023-03-27T09:59:59.803Z,93.30
2023-03-27T10:02:29.756Z,93.00
2023-03-27T10:05:11.997Z,93.10
2023-03-27T10:07:41.551Z,92.70
2023-03-27T10:10:15.654Z,92.80
2023-03-27T10:12:43.734Z,93.60
2023-03-27T10:15:41.123Z,93.20
2023-03-27T10:18:25.065Z,92.90
2023-03-27T10:20:54.281Z,92.80
2023-03-27T10:23:29.536Z,93.30
2023-03-27T10:26:01.729Z,92.70
2023-03-27T10:28:34.614Z,92.30
2023-03-27T10:31:04.230Z,92.10
2023-03-27T10:33:32.123Z,92.10
2023-03-27T10:35:59.903Z,92.10
2023-03-27T10:38:27.773Z,91.70
2023-03-27T10:40:56.318Z,91.50
2023-03-27T10:43:36.418Z,91.00
2023-03-27T10:46:08.311Z,91.30
2023-03-27T10:49:01.287Z,90.80
2023-03-27T10:51:47.026Z,90.90
2023-03-27T10:54:51.561Z,90.80
2023-03-27T10:57:35.877Z,91.00
2023-03-27T11:00:32.806Z,90.70
2023-03-27T11:03:28.221Z,90.80
2023-03-27T11:05:56.899Z,90.30
2023-03-27T11:08:27.420Z,89.10
2023-03-27T11:11:01.665Z,89.10
2023-03-27T11:13:34.696Z,88.40
2023-03-27T11:16:12.967Z,88.20
2023-03-27T11:18:45.584Z,87.50
2023-03-27T11:21:17.931Z,86.90
2023-03-27T11:23:57.908Z,86.30
2023-03-27T11:26:32.405Z,87.20
2023-03-27T11:29:23.023Z,86.80
2023-03-27T11:31:52.628Z,85.80
2023-03-27T11:34:42.742Z,84.90
2023-03-27T11:37:24.631Z,84.00
2023-03-27T11:39:54.986Z,84.80
2023-03-27T11:42:26.638Z,83.40
2023-03-27T11:44:53.581Z,83.10
2023-03-27T11:47:39.012Z,83.60
2023-03-27T11:50:22.196Z,83.60
2023-03-27T11:53:11.614Z,83.60
2023-03-27T11:55:49.227Z,82.90
2023-03-27T11:58:34.866Z,83.20
2023-03-27T12:01:08.129Z,84.10
2023-03-27T12:04:03.416Z,84.30
2023-03-27T12:06:49.631Z,84.50
2023-03-27T12:09:40.448Z,82.30
2023-03-27T12:12:11.016Z,82.00
2023-03-27T12:14:50.357Z,83.20
2023-03-27T12:17:42.561Z,83.40
2023-03-27T12:20:21.556Z,83.10
2023-03-27T12:22:54.064Z,82.70
2023-03-27T12:25:23.848Z,81.70
2023-03-27T12:28:22.724Z,81.50
2023-03-27T12:30:52.788Z,79.90
2023-03-27T12:33:45.009Z,79.60
2023-03-27T12:36:16.509Z,79.70
2023-03-27T12:38:44.220Z,79.90
2023-03-27T12:41:25.527Z,78.90
2023-03-27T12:44:00.750Z,79.50
2023-03-27T12:46:28.441Z,79.50
2023-03-27T12:49:21.655Z,80.20
2023-03-27T12:51:54.487Z,80.70
2023-03-27T12:54:28.629Z,79.50
2023-03-27T12:57:25.076Z,79.80
2023-03-27T12:59:59.055Z,79.60
2023-03-27T13:03:08.245Z,79.40
2023-03-27T13:06:04.073Z,79.50
2023-03-27T13:08:42.066Z,79.70
2023-03-27T13:11:26.218Z,79.40
2023-03-27T13:14:34.073Z,79.80
2023-03-27T13:17:48.229Z,81.00
2023-03-27T13:20:53.579Z,81.60
2023-03-27T13:23:40.908Z,80.10
2023-03-27T13:29:23.375Z,79.40
2023-03-27T13:31:50.286Z,79.80
2023-03-27T13:34:42.583Z,80.20
2023-03-27T13:37:15.504Z,79.60
2023-03-27T13:40:02.119Z,78.90
2023-03-27T13:42:37.475Z,78.60
2023-03-27T13:45:09.597Z,78.40
2023-03-27T13:48:16.258Z,79.20
2023-03-27T13:50:54.855Z,79.80
2023-03-27T13:53:37.794Z,81.00
2023-03-27T13:56:13.597Z,81.00
2023-03-27T13:58:54.123Z,80.50
2023-03-27T14:01:28.173Z,80.40
2023-03-27T14:04:39.897Z,80.70
2023-03-27T14:07:28.362Z,80.90
2023-03-27T14:10:16.418Z,81.30
2023-03-27T14:13:02.031Z,81.60
2023-03-27T14:16:05.447Z,81.90
2023-03-27T14:19:09.650Z,82.20
2023-03-27T14:21:58.752Z,82.50
2023-03-27T14:24:38.479Z,82.80
2023-03-27T14:27:11.061Z,83.20
2023-03-27T14:29:38.141Z,83.90
2023-03-27T14:32:06.699Z,84.60
2023-03-27T14:34:43.410Z,84.20
2023-03-27T14:37:36.091Z,84.10
2023-03-27T14:40:20.115Z,84.80
2023-03-27T14:42:49.734Z,85.50
2023-03-27T14:45:23.905Z,86.90
2023-03-27T14:47:55.680Z,87.20
2023-03-27T14:50:24.844Z,87.70
2023-03-27T14:52:53.713Z,88.00
2023-03-27T14:55:23.632Z,87.90
2023-03-27T14:57:59.027Z,87.80
2023-03-27T15:00:27.691Z,87.90
2023-03-27T15:02:55.335Z,88.00
2023-03-27T15:05:23.111Z,89.00
2023-03-27T15:07:50.320Z,88.90
2023-03-27T15:10:24.423Z,88.20
2023-03-27T15:12:51.614Z,88.80
2023-03-27T15:15:38.514Z,89.10
2023-03-27T15:18:13.250Z,89.30
2023-03-27T15:20:41.086Z,90.10
2023-03-27T15:23:13.012Z,90.00
2023-03-27T15:25:46.060Z,90.00
2023-03-27T15:28:24.769Z,90.20
2023-03-27T15:30:58.139Z,90.70
2023-03-27T15:33:41.372Z,90.60
2023-03-27T15:36:22.505Z,90.60
2023-03-27T15:38:51.154Z,90.80
2023-03-27T15:41:18.158Z,91.00
2023-03-27T15:43:45.087Z,90.70
2023-03-27T15:46:20.171Z,89.90
2023-03-27T15:48:51.354Z,89.40
2023-03-27T15:51:21.194Z,90.10
2023-03-27T15:53:50.934Z,89.50
2023-03-27T15:56:34.511Z,90.50
2023-03-27T15:59:10.499Z,90.00
2023-03-27T16:01:53.343Z,89.90
2023-03-27T16:04:26.488Z,90.00
2023-03-27T16:07:05.808Z,90.10
2023-03-27T16:09:46.236Z,88.50
2023-03-27T16:12:25.942Z,87.70
2023-03-27T16:14:57.150Z,88.20
2023-03-27T16:17:45.008Z,87.90
2023-03-27T16:20:12.796Z,88.20
2023-03-27T16:22:40.562Z,87.90
2023-03-27T16:25:10.052Z,87.70
2023-03-27T16:27:43.501Z,88.30
2023-03-27T16:30:26.810Z,88.10
2023-03-27T16:32:53.938Z,88.70
2023-03-27T16:35:21.089Z,89.10
2023-03-27T16:37:48.647Z,88.60
2023-03-27T16:40:15.776Z,89.40
2023-03-27T16:42:42.642Z,89.30
2023-03-27T16:45:09.752Z,89.30
2023-03-27T16:47:36.743Z,89.60
2023-03-27T16:52:34.452Z,89.20
2023-03-27T16:55:02.532Z,89.00
2023-03-27T16:57:29.945Z,88.60
2023-03-27T16:59:56.707Z,88.20
2023-03-27T17:02:25.534Z,88.30
2023-03-27T17:04:52.635Z,87.70
2023-03-27T17:07:19.668Z,87.50
2023-03-27T17:09:46.530Z,87.30
2023-03-27T17:12:13.467Z,86.50
2023-03-27T17:14:40.613Z,85.90
2023-03-27T17:17:07.464Z,86.60
2023-03-27T17:19:34.300Z,85.40
2023-03-27T17:22:01.089Z,85.20
2023-03-27T17:24:27.877Z,83.70
2023-03-27T17:26:54.680Z,84.50
2023-03-27T17:29:21.722Z,84.60
2023-03-27T17:31:48.679Z,85.60
2023-03-27T17:34:15.741Z,86.30
2023-03-27T17:36:47.453Z,87.40
2023-03-27T17:39:21.184Z,87.10
2023-03-27T17:41:49.134Z,87.00
2023-03-27T17:44:16.052Z,86.70
2023-03-27T17:46:43.135Z,85.70
2023-03-27T17:49:11.025Z,85.80
2023-03-27T17:51:37.897Z,85.30
2023-03-27T17:54:04.977Z,84.80
2023-03-27T17:56:31.973Z,85.20
2023-03-27T17:58:58.903Z,84.70
2023-03-27T18:01:25.772Z,85.00
2023-03-27T18:03:53.142Z,85.90
2023-03-27T18:06:20.149Z,85.40
2023-03-27T18:08:47.100Z,85.60
2023-03-27T18:11:15.778Z,85.40
2023-03-27T18:13:43.003Z,84.60
2023-03-27T18:16:13.188Z,84.00
2023-03-27T18:18:40.781Z,83.90
2023-03-27T18:21:08.336Z,85.00
2023-03-27T18:23:37.673Z,84.80
2023-03-27T18:26:12.980Z,85.40
2023-03-27T18:28:39.792Z,85.50
2023-03-27T18:31:09.047Z,85.50
2023-03-27T18:33:36.731Z,83.00
2023-03-27T18:36:13.387Z,81.00
2023-03-27T18:38:41.849Z,80.00
2023-03-27T18:41:16.050Z,79.00
2023-03-27T18:43:43.043Z,77.90
2023-03-27T18:46:14.047Z,77.90
2023-03-27T18:48:41.918Z,77.60
2023-03-27T18:51:08.782Z,78.30
2023-03-27T18:53:35.836Z,79.00
2023-03-27T18:56:03.409Z,79.20
2023-03-27T18:58:39.099Z,79.50
2023-03-27T19:01:10.646Z,80.00
2023-03-27T19:03:39.112Z,80.50
2023-03-27T19:06:08.636Z,81.00
2023-03-27T19:08:38.068Z,79.90
2023-03-27T19:11:06.182Z,79.70
2023-03-27T19:13:33.037Z,80.20
2023-03-27T19:16:00.308Z,80.20
2023-03-27T19:18:30.018Z,80.90
2023-03-27T19:21:00.854Z,81.00
2023-03-27T19:23:28.429Z,81.40
2023-03-27T19:25:55.439Z,80.00
2023-03-27T19:28:22.245Z,76.70
2023-03-27T19:30:50.176Z,75.50
2023-03-27T19:33:17.052Z,76.00
2023-03-27T19:35:43.905Z,77.10
2023-03-27T19:38:11.305Z,77.30
2023-03-27T19:40:38.104Z,76.20
2023-03-27T19:43:04.886Z,75.60
2023-03-27T19:45:32.048Z,74.10
2023-03-27T19:47:58.852Z,73.50
2023-03-27T19:50:26.018Z,74.40
2023-03-27T19:53:05.495Z,72.30
2023-03-27T19:55:34.804Z,71.80
2023-03-27T19:58:01.682Z,71.50
2023-03-27T20:00:30.134Z,71.70
2023-03-27T20:02:58.503Z,72.40
2023-03-27T20:05:25.984Z,72.30
2023-03-27T20:07:52.750Z,73.00
2023-03-27T20:10:21.376Z,72.70
2023-03-27T20:12:48.558Z,73.40
2023-03-27T20:15:15.591Z,73.20
2023-03-27T20:17:42.996Z,73.50
2023-03-27T20:20:11.273Z,73.50
2023-03-27T20:22:50.112Z,73.60
2023-03-27T20:25:23.745Z,73.30
2023-03-27T20:27:50.866Z,73.60
2023-03-27T20:30:17.770Z,73.20
2023-03-27T20:32:44.628Z,71.20
2023-03-27T20:35:23.098Z,71.80
2023-03-27T20:37:56.281Z,71.70
2023-03-27T20:40:23.909Z,72.50
2023-03-27T20:43:02.857Z,71.70
2023-03-27T20:45:31.205Z,71.30
2023-03-27T20:48:04.068Z,70.50
2023-03-27T20:50:35.135Z,70.20
2023-03-27T20:53:04.559Z,70.30
2023-03-27T20:55:34.604Z,71.20
2023-03-27T20:58:06.705Z,71.40
2023-03-27T21:00:35.723Z,72.40
2023-03-27T21:03:02.792Z,72.40
2023-03-27T21:05:30.019Z,72.70
2023-03-27T21:07:56.970Z,72.10
2023-03-27T21:10:24.961Z,72.80
2023-03-27T21:12:53.793Z,73.20
2023-03-27T21:15:20.591Z,73.10
2023-03-27T21:17:47.456Z,73.70
2023-03-27T21:20:14.388Z,73.50
2023-03-27T21:22:44.139Z,73.70
2023-03-27T21:25:11.061Z,73.10
2023-03-27T21:27:38.139Z,72.10
2023-03-27T21:30:06.263Z,72.70
2023-03-27T21:32:33.164Z,72.20
2023-03-27T21:35:00.050Z,71.90
2023-03-27T21:37:26.844Z,72.70
2023-03-27T21:39:53.645Z,72.50
2023-03-27T21:42:21.869Z,72.00
2023-03-27T21:44:53.647Z,72.20
2023-03-27T21:47:22.712Z,72.40
2023-03-27T21:49:49.542Z,71.90
2023-03-27T21:52:16.394Z,72.70
2023-03-27T21:54:49.998Z,72.10
2023-03-27T21:57:27.083Z,71.90
2023-03-27T21:59:53.946Z,71.90
2023-03-27T22:02:20.780Z,71.90
2023-03-27T22:04:47.609Z,70.90
2023-03-27T22:07:14.493Z,72.20
2023-03-27T22:09:44.328Z,71.30
2023-03-27T22:12:11.155Z,71.60
2023-03-27T22:14:37.984Z,71.40
2023-03-27T22:17:05.195Z,71.80
2023-03-27T22:19:32.091Z,71.70
2023-03-27T22:21:59.000Z,71.10
2023-03-27T22:24:25.839Z,71.80
2023-03-27T22:26:52.590Z,71.60
2023-03-27T22:29:19.491Z,71.40
2023-03-27T22:31:46.298Z,71.20
2023-03-27T22:34:13.150Z,71.20
2023-03-27T22:36:40.032Z,70.80
2023-03-27T22:39:06.811Z,70.80
2023-03-27T22:41:33.536Z,71.00
2023-03-27T22:44:01.801Z,71.80
2023-03-27T22:46:28.789Z,71.90
2023-03-27T22:48:57.608Z,72.50
2023-03-27T22:51:25.379Z,72.90
2023-03-27T22:53:52.185Z,73.00
2023-03-27T22:56:19.063Z,72.60
2023-03-27T22:58:46.271Z,73.20
2023-03-27T23:01:13.397Z,72.90
2023-03-27T23:03:40.770Z,73.40
2023-03-27T23:06:08.112Z,73.40
2023-03-27T23:08:35.071Z,73.50
2023-03-27T23:11:04.662Z,73.90
2023-03-27T23:13:34.084Z,74.30
2023-03-27T23:16:01.673Z,74.50
2023-03-27T23:18:28.655Z,74.70
2023-03-27T23:20:58.220Z,74.80
2023-03-27T23:23:26.504Z,75.10
2023-03-27T23:25:54.375Z,75.40
2023-03-27T23:28:21.843Z,74.90
2023-03-27T23:30:59.693Z,75.70
2023-03-27T23:33:27.740Z,75.50
2023-03-27T23:36:04.590Z,75.80
2023-03-27T23:38:31.606Z,75.80
2023-03-27T23:41:00.302Z,75.80
2023-03-27T23:43:28.600Z,75.80
2023-03-27T23:45:56.313Z,75.90
2023-03-27T23:48:23.585Z,76.30
2023-03-27T23:50:51.838Z,76.30
2023-03-27T23:53:20.402Z,76.10
2023-03-27T23:55:47.340Z,76.90
2023-03-27T23:58:14.180Z,76.80
